Hovedside
METAR-TAF:

METAR-TAF

Lufthavner :

Niamey, Niger

Diori Hamani internasjonale lufthavn

breddegrad: 13-29N, lengdegrad: 002-10E, høyde over havet: 223 m

Gjeldene værobservasjon

Denne rapporten ble laget for 25 minutter siden, klokken 21:00 UTC
Vind 5 kt fra Øst-nordøst
Temperatur 22°C
Luftfuktighet 12%
Trykk 1014 hPa
Sikt 10 km eller mer
ingen skyer under 1500 m og ingen bygeskyer

METAR: DRRN 182100Z 06005KT CAVOK 22/M09 Q1014 NOSIG

Tid: 22:25 (21:25 UTC)

Varsel

Denne rapporten ble laget for 4 timer og 25 minutter siden, klokken 17:00 UTC
Varsel gyldig fra 18. klokken 18 UTC til 19. klokken 24 UTC
Vind 10 kt fra Øst-nordøst
Sikt: 8000 m
Midlertidig
fra 18. klokken 18 UTC til 18. klokken 20 UTC
Sikt: 4000 m
mye støv
Midlertidig
fra 19. klokken 06 UTC til 19. klokken 09 UTC
Sikt: 4000 m
mye støv

TAF: DRRN 181700Z 1818/1924 06010KT 8000 NSC TEMPO 1818/1820 4000 DU TEMPO 1906/1909 4000 DU

Værobservasjoner og værvarsel for over 4000 flyplasser (METAR- og TAF-rapporter).

Tilgjengelige stasjoner er representert av de røde og gule prikkene på kartet.

Hold musepekeren over prikken for å se navnet på stasjonen.

Klikk så for å se værobservasjoner og -varsler.

For å forandre kartet kan du klikke på den grønne knappen med svart kryss for å zoome inn, på den grønne knappen med strek for å zoome ut, eller på de grønne pilene for å se tilstøtende kart.


METAR-TAF: